sensor_id;sensor_type;location;lat;lon;timestamp;temperature;humidity
18948;DHT22;9607;51.600;7.558;2024-03-25T00:00:14;5.60;99.90
18948;DHT22;9607;51.600;7.558;2024-03-25T00:02:42;5.60;99.90
18948;DHT22;9607;51.600;7.558;2024-03-25T00:05:08;5.60;99.90
18948;DHT22;9607;51.600;7.558;2024-03-25T00:07:36;5.60;99.90
18948;DHT22;9607;51.600;7.558;2024-03-25T00:10:03;5.60;99.90
18948;DHT22;9607;51.600;7.558;2024-03-25T00:12:32;5.60;99.90
18948;DHT22;9607;51.600;7.558;2024-03-25T00:14:58;5.50;99.90
18948;DHT22;9607;51.600;7.558;2024-03-25T00:17:26;5.50;99.90
18948;DHT22;9607;51.600;7.558;2024-03-25T00:19:52;5.50;99.90
18948;DHT22;9607;51.600;7.558;2024-03-25T00:22:21;5.50;99.90
18948;DHT22;9607;51.600;7.558;2024-03-25T00:24:48;5.50;99.90
18948;DHT22;9607;51.600;7.558;2024-03-25T00:27:15;5.50;99.90
18948;DHT22;9607;51.600;7.558;2024-03-25T00:29:41;5.50;99.90
18948;DHT22;9607;51.600;7.558;2024-03-25T00:32:08;5.60;99.90
18948;DHT22;9607;51.600;7.558;2024-03-25T00:34:36;5.50;99.90
18948;DHT22;9607;51.600;7.558;2024-03-25T00:37:03;5.40;99.90
18948;DHT22;9607;51.600;7.558;2024-03-25T00:39:31;5.40;99.90
18948;DHT22;9607;51.600;7.558;2024-03-25T00:41:58;5.50;99.90
18948;DHT22;9607;51.600;7.558;2024-03-25T00:44:24;5.40;99.90
18948;DHT22;9607;51.600;7.558;2024-03-25T00:46:51;5.40;99.90
18948;DHT22;9607;51.600;7.558;2024-03-25T00:49:17;5.40;99.90
18948;DHT22;9607;51.600;7.558;2024-03-25T00:51:45;5.40;99.90
18948;DHT22;9607;51.600;7.558;2024-03-25T00:54:11;5.40;99.90
18948;DHT22;9607;51.600;7.558;2024-03-25T00:56:37;5.40;99.90
18948;DHT22;9607;51.600;7.558;2024-03-25T00:59:03;5.50;99.90
18948;DHT22;9607;51.600;7.558;2024-03-25T01:01:32;5.50;99.90
18948;DHT22;9607;51.600;7.558;2024-03-25T01:03:58;5.40;99.90
18948;DHT22;9607;51.600;7.558;2024-03-25T01:06:25;5.40;99.90
18948;DHT22;9607;51.600;7.558;2024-03-25T01:08:52;5.40;99.90
18948;DHT22;9607;51.600;7.558;2024-03-25T01:11:19;5.40;99.90
18948;DHT22;9607;51.600;7.558;2024-03-25T01:13:47;5.40;99.90
18948;DHT22;9607;51.600;7.558;2024-03-25T01:16:14;5.40;99.90
18948;DHT22;9607;51.600;7.558;2024-03-25T01:18:42;5.40;99.90
18948;DHT22;9607;51.600;7.558;2024-03-25T01:21:10;5.30;99.90
18948;DHT22;9607;51.600;7.558;2024-03-25T01:23:36;5.30;99.90
18948;DHT22;9607;51.600;7.558;2024-03-25T01:26:04;5.30;99.90
18948;DHT22;9607;51.600;7.558;2024-03-25T01:28:30;5.30;99.90
18948;DHT22;9607;51.600;7.558;2024-03-25T01:30:57;5.30;99.90
18948;DHT22;9607;51.600;7.558;2024-03-25T01:33:22;5.30;99.90
18948;DHT22;9607;51.600;7.558;2024-03-25T01:35:49;5.30;99.90
18948;DHT22;9607;51.600;7.558;2024-03-25T01:38:16;5.30;99.90
18948;DHT22;9607;51.600;7.558;2024-03-25T01:40:42;5.30;99.90
18948;DHT22;9607;51.600;7.558;2024-03-25T01:43:10;5.30;99.90
18948;DHT22;9607;51.600;7.558;2024-03-25T01:45:36;5.20;99.90
18948;DHT22;9607;51.600;7.558;2024-03-25T01:48:06;5.20;99.90
18948;DHT22;9607;51.600;7.558;2024-03-25T01:50:35;5.10;99.90
18948;DHT22;9607;51.600;7.558;2024-03-25T01:53:02;5.10;99.90
18948;DHT22;9607;51.600;7.558;2024-03-25T01:55:30;5.10;99.90
18948;DHT22;9607;51.600;7.558;2024-03-25T01:57:58;5.10;99.90
18948;DHT22;9607;51.600;7.558;2024-03-25T02:00:27;5.10;99.90
18948;DHT22;9607;51.600;7.558;2024-03-25T02:02:53;5.10;99.90
18948;DHT22;9607;51.600;7.558;2024-03-25T02:05:23;5.00;99.90
18948;DHT22;9607;51.600;7.558;2024-03-25T02:07:49;5.10;99.90
18948;DHT22;9607;51.600;7.558;2024-03-25T02:10:16;5.10;99.90
18948;DHT22;9607;51.600;7.558;2024-03-25T02:12:43;5.10;99.90
18948;DHT22;9607;51.600;7.558;2024-03-25T02:15:12;5.10;99.90
18948;DHT22;9607;51.600;7.558;2024-03-25T02:17:40;5.10;99.90
18948;DHT22;9607;51.600;7.558;2024-03-25T02:20:08;5.10;99.90
18948;DHT22;9607;51.600;7.558;2024-03-25T02:22:35;5.10;99.90
18948;DHT22;9607;51.600;7.558;2024-03-25T02:25:06;5.10;99.90
18948;DHT22;9607;51.600;7.558;2024-03-25T02:27:34;5.00;99.90
18948;DHT22;9607;51.600;7.558;2024-03-25T02:30:03;5.00;99.90
18948;DHT22;9607;51.600;7.558;2024-03-25T02:32:29;5.00;99.90
18948;DHT22;9607;51.600;7.558;2024-03-25T02:34:57;5.00;99.90
18948;DHT22;9607;51.600;7.558;2024-03-25T02:37:23;4.90;99.90
18948;DHT22;9607;51.600;7.558;2024-03-25T02:39:51;4.90;99.90
18948;DHT22;9607;51.600;7.558;2024-03-25T02:42:17;4.80;99.90
18948;DHT22;9607;51.600;7.558;2024-03-25T02:44:46;4.80;99.90
18948;DHT22;9607;51.600;7.558;2024-03-25T02:47:12;4.70;99.90
18948;DHT22;9607;51.600;7.558;2024-03-25T02:49:39;4.70;99.90
18948;DHT22;9607;51.600;7.558;2024-03-25T02:52:06;4.80;99.90
18948;DHT22;9607;51.600;7.558;2024-03-25T02:54:32;4.70;99.90
18948;DHT22;9607;51.600;7.558;2024-03-25T02:56:58;4.80;99.90
18948;DHT22;9607;51.600;7.558;2024-03-25T02:59:25;4.80;99.90
18948;DHT22;9607;51.600;7.558;2024-03-25T03:01:52;4.80;99.90
18948;DHT22;9607;51.600;7.558;2024-03-25T03:04:19;4.80;99.90
18948;DHT22;9607;51.600;7.558;2024-03-25T03:06:45;4.90;99.90
18948;DHT22;9607;51.600;7.558;2024-03-25T03:09:12;4.90;99.90
18948;DHT22;9607;51.600;7.558;2024-03-25T03:11:38;4.90;99.90
18948;DHT22;9607;51.600;7.558;2024-03-25T03:14:05;5.00;99.90
18948;DHT22;9607;51.600;7.558;2024-03-25T03:16:31;4.90;99.90
18948;DHT22;9607;51.600;7.558;2024-03-25T03:18:59;5.00;99.90
18948;DHT22;9607;51.600;7.558;2024-03-25T03:21:25;5.00;99.90
18948;DHT22;9607;51.600;7.558;2024-03-25T03:23:52;5.00;99.90
18948;DHT22;9607;51.600;7.558;2024-03-25T03:26:18;5.10;99.90
18948;DHT22;9607;51.600;7.558;2024-03-25T03:28:45;5.10;99.90
18948;DHT22;9607;51.600;7.558;2024-03-25T03:31:11;5.10;99.90
18948;DHT22;9607;51.600;7.558;2024-03-25T03:33:37;5.10;99.90
18948;DHT22;9607;51.600;7.558;2024-03-25T03:36:06;5.10;99.90
18948;DHT22;9607;51.600;7.558;2024-03-25T03:38:33;5.10;99.90
18948;DHT22;9607;51.600;7.558;2024-03-25T03:40:59;5.10;99.90
18948;DHT22;9607;51.600;7.558;2024-03-25T03:43:26;5.20;99.90
18948;DHT22;9607;51.600;7.558;2024-03-25T03:45:52;5.20;99.90
18948;DHT22;9607;51.600;7.558;2024-03-25T03:48:19;5.20;99.90
18948;DHT22;9607;51.600;7.558;2024-03-25T03:50:45;5.20;99.90
18948;DHT22;9607;51.600;7.558;2024-03-25T03:53:13;5.20;99.90
18948;DHT22;9607;51.600;7.558;2024-03-25T03:55:39;5.20;99.90
18948;DHT22;9607;51.600;7.558;2024-03-25T03:58:06;5.20;99.90
18948;DHT22;9607;51.600;7.558;2024-03-25T04:00:33;5.20;99.90
18948;DHT22;9607;51.600;7.558;2024-03-25T04:03:02;5.20;99.90
18948;DHT22;9607;51.600;7.558;2024-03-25T04:05:29;5.10;99.90
18948;DHT22;9607;51.600;7.558;2024-03-25T04:07:56;5.20;99.90
18948;DHT22;9607;51.600;7.558;2024-03-25T04:10:26;5.10;99.90
18948;DHT22;9607;51.600;7.558;2024-03-25T04:12:53;5.10;99.90
18948;DHT22;9607;51.600;7.558;2024-03-25T04:15:19;5.10;99.90
18948;DHT22;9607;51.600;7.558;2024-03-25T04:17:47;5.10;99.90
18948;DHT22;9607;51.600;7.558;2024-03-25T04:20:15;5.10;99.90
18948;DHT22;9607;51.600;7.558;2024-03-25T04:22:42;5.10;99.90
18948;DHT22;9607;51.600;7.558;2024-03-25T04:25:08;5.10;99.90
18948;DHT22;9607;51.600;7.558;2024-03-25T04:27:37;5.10;99.90
18948;DHT22;9607;51.600;7.558;2024-03-25T04:30:04;5.10;99.90
18948;DHT22;9607;51.600;7.558;2024-03-25T04:32:32;5.10;99.90
18948;DHT22;9607;51.600;7.558;2024-03-25T04:34:58;5.00;99.90
18948;DHT22;9607;51.600;7.558;2024-03-25T04:37:27;5.00;99.90
18948;DHT22;9607;51.600;7.558;2024-03-25T04:39:53;5.00;99.90
18948;DHT22;9607;51.600;7.558;2024-03-25T04:42:19;4.90;99.90
18948;DHT22;9607;51.600;7.558;2024-03-25T04:44:47;4.80;99.90
18948;DHT22;9607;51.600;7.558;2024-03-25T04:47:13;4.80;99.90
18948;DHT22;9607;51.600;7.558;2024-03-25T04:49:39;4.70;99.90
18948;DHT22;9607;51.600;7.558;2024-03-25T04:52:05;4.60;99.90
18948;DHT22;9607;51.600;7.558;2024-03-25T04:54:31;4.50;99.90
18948;DHT22;9607;51.600;7.558;2024-03-25T04:56:57;4.50;99.90
18948;DHT22;9607;51.600;7.558;2024-03-25T04:59:23;4.40;99.90
18948;DHT22;9607;51.600;7.558;2024-03-25T05:01:50;4.40;99.90
18948;DHT22;9607;51.600;7.558;2024-03-25T05:04:16;4.30;99.90
18948;DHT22;9607;51.600;7.558;2024-03-25T05:06:41;4.30;99.90
18948;DHT22;9607;51.600;7.558;2024-03-25T05:09:07;4.20;99.90
18948;DHT22;9607;51.600;7.558;2024-03-25T05:11:33;4.20;99.90
18948;DHT22;9607;51.600;7.558;2024-03-25T05:13:59;4.20;99.90
18948;DHT22;9607;51.600;7.558;2024-03-25T05:16:25;4.10;99.90
18948;DHT22;9607;51.600;7.558;2024-03-25T05:18:53;4.10;99.90
18948;DHT22;9607;51.600;7.558;2024-03-25T05:21:19;4.00;99.90
18948;DHT22;9607;51.600;7.558;2024-03-25T05:23:45;4.00;99.90
18948;DHT22;9607;51.600;7.558;2024-03-25T05:26:11;3.90;99.90
18948;DHT22;9607;51.600;7.558;2024-03-25T05:28:37;3.90;99.90
18948;DHT22;9607;51.600;7.558;2024-03-25T05:31:06;3.80;99.90
18948;DHT22;9607;51.600;7.558;2024-03-25T05:33:32;3.80;99.90
18948;DHT22;9607;51.600;7.558;2024-03-25T05:36:00;3.80;99.90
18948;DHT22;9607;51.600;7.558;2024-03-25T05:38:26;3.80;99.90
18948;DHT22;9607;51.600;7.558;2024-03-25T05:40:52;3.80;99.90
18948;DHT22;9607;51.600;7.558;2024-03-25T05:43:18;3.80;99.90
18948;DHT22;9607;51.600;7.558;2024-03-25T05:45:50;3.80;99.90
18948;DHT22;9607;51.600;7.558;2024-03-25T05:48:16;3.80;99.90
18948;DHT22;9607;51.600;7.558;2024-03-25T05:50:42;3.90;99.90
18948;DHT22;9607;51.600;7.558;2024-03-25T05:53:10;3.90;99.90
18948;DHT22;9607;51.600;7.558;2024-03-25T05:55:36;4.00;99.90
18948;DHT22;9607;51.600;7.558;2024-03-25T05:58:02;4.00;99.90
18948;DHT22;9607;51.600;7.558;2024-03-25T06:00:28;4.10;99.90
18948;DHT22;9607;51.600;7.558;2024-03-25T06:02:55;4.20;99.90
18948;DHT22;9607;51.600;7.558;2024-03-25T06:05:21;4.20;99.90
18948;DHT22;9607;51.600;7.558;2024-03-25T06:07:47;4.40;99.90
18948;DHT22;9607;51.600;7.558;2024-03-25T06:10:14;4.40;99.90
18948;DHT22;9607;51.600;7.558;2024-03-25T06:12:40;4.50;99.90
18948;DHT22;9607;51.600;7.558;2024-03-25T06:15:07;4.60;99.90
18948;DHT22;9607;51.600;7.558;2024-03-25T06:17:33;4.60;99.90
18948;DHT22;9607;51.600;7.558;2024-03-25T06:20:00;4.70;99.90
18948;DHT22;9607;51.600;7.558;2024-03-25T06:22:26;4.70;99.90
18948;DHT22;9607;51.600;7.558;2024-03-25T06:24:52;4.80;99.90
18948;DHT22;9607;51.600;7.558;2024-03-25T06:27:19;4.80;99.90
18948;DHT22;9607;51.600;7.558;2024-03-25T06:29:46;4.90;99.90
18948;DHT22;9607;51.600;7.558;2024-03-25T06:32:12;5.00;99.90
18948;DHT22;9607;51.600;7.558;2024-03-25T06:34:56;5.00;99.90
18948;DHT22;9607;51.600;7.558;2024-03-25T06:37:22;5.20;99.90
18948;DHT22;9607;51.600;7.558;2024-03-25T06:39:48;5.20;99.90
18948;DHT22;9607;51.600;7.558;2024-03-25T06:42:14;5.20;99.90
18948;DHT22;9607;51.600;7.558;2024-03-25T06:44:41;5.10;99.90
18948;DHT22;9607;51.600;7.558;2024-03-25T06:47:07;5.10;99.90
18948;DHT22;9607;51.600;7.558;2024-03-25T06:49:33;5.10;99.90
18948;DHT22;9607;51.600;7.558;2024-03-25T06:51:59;5.10;99.90
18948;DHT22;9607;51.600;7.558;2024-03-25T06:54:26;5.10;99.90
18948;DHT22;9607;51.600;7.558;2024-03-25T06:56:51;5.20;99.90
18948;DHT22;9607;51.600;7.558;2024-03-25T06:59:17;5.20;99.90
18948;DHT22;9607;51.600;7.558;2024-03-25T07:01:45;5.30;99.90
18948;DHT22;9607;51.600;7.558;2024-03-25T07:04:11;5.40;99.90
18948;DHT22;9607;51.600;7.558;2024-03-25T07:06:36;5.40;99.90
18948;DHT22;9607;51.600;7.558;2024-03-25T07:09:02;5.50;99.90
18948;DHT22;9607;51.600;7.558;2024-03-25T07:11:28;5.60;99.90
18948;DHT22;9607;51.600;7.558;2024-03-25T07:13:54;5.70;99.90
18948;DHT22;9607;51.600;7.558;2024-03-25T07:16:20;5.70;99.90
18948;DHT22;9607;51.600;7.558;2024-03-25T07:18:47;5.80;99.90
18948;DHT22;9607;51.600;7.558;2024-03-25T07:21:13;5.90;99.90
18948;DHT22;9607;51.600;7.558;2024-03-25T07:23:39;5.90;99.90
18948;DHT22;9607;51.600;7.558;2024-03-25T07:26:05;6.00;99.90
18948;DHT22;9607;51.600;7.558;2024-03-25T07:28:31;6.10;99.90
18948;DHT22;9607;51.600;7.558;2024-03-25T07:30:57;6.20;99.90
18948;DHT22;9607;51.600;7.558;2024-03-25T07:33:23;6.30;99.90
18948;DHT22;9607;51.600;7.558;2024-03-25T07:35:50;6.40;99.90
18948;DHT22;9607;51.600;7.558;2024-03-25T07:38:16;6.60;99.90
18948;DHT22;9607;51.600;7.558;2024-03-25T07:40:42;6.70;99.90
18948;DHT22;9607;51.600;7.558;2024-03-25T07:43:08;6.80;99.90
18948;DHT22;9607;51.600;7.558;2024-03-25T07:45:33;6.90;99.90
18948;DHT22;9607;51.600;7.558;2024-03-25T07:47:59;6.90;99.90
18948;DHT22;9607;51.600;7.558;2024-03-25T07:50:25;7.00;99.90
18948;DHT22;9607;51.600;7.558;2024-03-25T07:52:53;7.10;99.90
18948;DHT22;9607;51.600;7.558;2024-03-25T07:55:19;7.20;99.90
18948;DHT22;9607;51.600;7.558;2024-03-25T07:57:45;7.40;99.90
18948;DHT22;9607;51.600;7.558;2024-03-25T08:00:12;7.40;99.90
18948;DHT22;9607;51.600;7.558;2024-03-25T08:02:38;7.40;99.90
18948;DHT22;9607;51.600;7.558;2024-03-25T08:05:05;7.40;99.90
18948;DHT22;9607;51.600;7.558;2024-03-25T08:07:31;7.50;99.90
18948;DHT22;9607;51.600;7.558;2024-03-25T08:09:58;7.50;99.90
18948;DHT22;9607;51.600;7.558;2024-03-25T08:12:25;7.50;99.90
18948;DHT22;9607;51.600;7.558;2024-03-25T08:14:50;7.50;99.90
18948;DHT22;9607;51.600;7.558;2024-03-25T08:17:16;7.50;99.90
18948;DHT22;9607;51.600;7.558;2024-03-25T08:19:42;7.50;99.90
18948;DHT22;9607;51.600;7.558;2024-03-25T08:22:08;7.50;99.90
18948;DHT22;9607;51.600;7.558;2024-03-25T08:24:34;7.50;99.90
18948;DHT22;9607;51.600;7.558;2024-03-25T08:27:02;7.50;99.90
18948;DHT22;9607;51.600;7.558;2024-03-25T08:29:28;7.50;99.90
18948;DHT22;9607;51.600;7.558;2024-03-25T08:31:53;7.60;99.90
18948;DHT22;9607;51.600;7.558;2024-03-25T08:34:19;7.70;99.90
18948;DHT22;9607;51.600;7.558;2024-03-25T08:36:45;7.80;99.90
18948;DHT22;9607;51.600;7.558;2024-03-25T08:39:11;7.90;99.90
18948;DHT22;9607;51.600;7.558;2024-03-25T08:41:37;8.00;99.90
18948;DHT22;9607;51.600;7.558;2024-03-25T08:44:07;8.10;99.90
18948;DHT22;9607;51.600;7.558;2024-03-25T08:46:33;8.10;99.90
18948;DHT22;9607;51.600;7.558;2024-03-25T08:48:59;8.20;99.90
18948;DHT22;9607;51.600;7.558;2024-03-25T08:51:25;8.30;99.90
18948;DHT22;9607;51.600;7.558;2024-03-25T08:53:51;8.30;99.90
18948;DHT22;9607;51.600;7.558;2024-03-25T08:56:17;8.40;99.90
18948;DHT22;9607;51.600;7.558;2024-03-25T08:58:43;8.60;99.90
18948;DHT22;9607;51.600;7.558;2024-03-25T09:01:10;8.70;99.90
18948;DHT22;9607;51.600;7.558;2024-03-25T09:03:36;8.80;99.90
18948;DHT22;9607;51.600;7.558;2024-03-25T09:06:02;8.90;99.90
18948;DHT22;9607;51.600;7.558;2024-03-25T09:08:28;9.00;99.90
18948;DHT22;9607;51.600;7.558;2024-03-25T09:10:53;9.10;99.90
18948;DHT22;9607;51.600;7.558;2024-03-25T09:13:29;9.20;99.90
18948;DHT22;9607;51.600;7.558;2024-03-25T09:15:54;9.30;99.90
18948;DHT22;9607;51.600;7.558;2024-03-25T09:18:22;9.40;99.90
18948;DHT22;9607;51.600;7.558;2024-03-25T09:20:48;9.50;99.90
18948;DHT22;9607;51.600;7.558;2024-03-25T09:23:14;9.60;99.90
18948;DHT22;9607;51.600;7.558;2024-03-25T09:25:40;9.70;99.90
18948;DHT22;9607;51.600;7.558;2024-03-25T09:28:05;9.90;99.90
18948;DHT22;9607;51.600;7.558;2024-03-25T09:30:35;10.10;99.90
18948;DHT22;9607;51.600;7.558;2024-03-25T09:33:01;10.30;99.90
18948;DHT22;9607;51.600;7.558;2024-03-25T09:35:28;10.50;99.90
18948;DHT22;9607;51.600;7.558;2024-03-25T09:37:55;10.50;99.90
18948;DHT22;9607;51.600;7.558;2024-03-25T09:40:21;10.50;99.90
18948;DHT22;9607;51.600;7.558;2024-03-25T09:42:47;10.50;99.90
18948;DHT22;9607;51.600;7.558;2024-03-25T09:45:16;10.50;99.90
18948;DHT22;9607;51.600;7.558;2024-03-25T09:47:45;10.50;99.90
18948;DHT22;9607;51.600;7.558;2024-03-25T09:50:12;10.50;99.90
18948;DHT22;9607;51.600;7.558;2024-03-25T09:52:40;10.50;99.90
18948;DHT22;9607;51.600;7.558;2024-03-25T09:55:07;10.40;99.90
18948;DHT22;9607;51.600;7.558;2024-03-25T09:57:33;10.50;99.90
18948;DHT22;9607;51.600;7.558;2024-03-25T10:00:00;10.50;99.90
18948;DHT22;9607;51.600;7.558;2024-03-25T10:02:28;10.50;99.90
18948;DHT22;9607;51.600;7.558;2024-03-25T10:04:55;10.40;99.90
18948;DHT22;9607;51.600;7.558;2024-03-25T10:07:22;10.40;99.90
18948;DHT22;9607;51.600;7.558;2024-03-25T10:09:50;10.40;99.90
18948;DHT22;9607;51.600;7.558;2024-03-25T10:12:16;10.60;99.90
18948;DHT22;9607;51.600;7.558;2024-03-25T10:14:41;10.80;99.90
18948;DHT22;9607;51.600;7.558;2024-03-25T10:17:07;10.90;99.90
18948;DHT22;9607;51.600;7.558;2024-03-25T10:19:34;11.00;99.90
18948;DHT22;9607;51.600;7.558;2024-03-25T10:22:05;11.20;99.90
18948;DHT22;9607;51.600;7.558;2024-03-25T10:24:42;11.40;99.90
18948;DHT22;9607;51.600;7.558;2024-03-25T10:27:17;11.60;99.90
18948;DHT22;9607;51.600;7.558;2024-03-25T10:29:43;11.60;99.90
18948;DHT22;9607;51.600;7.558;2024-03-25T10:32:10;11.70;99.90
18948;DHT22;9607;51.600;7.558;2024-03-25T10:34:36;11.60;99.90
18948;DHT22;9607;51.600;7.558;2024-03-25T10:37:04;11.60;99.90
18948;DHT22;9607;51.600;7.558;2024-03-25T10:39:31;11.60;99.90
18948;DHT22;9607;51.600;7.558;2024-03-25T10:41:59;11.50;99.90
18948;DHT22;9607;51.600;7.558;2024-03-25T10:44:28;11.50;99.90
18948;DHT22;9607;51.600;7.558;2024-03-25T10:46:58;11.60;99.90
18948;DHT22;9607;51.600;7.558;2024-03-25T10:49:33;11.70;99.90
18948;DHT22;9607;51.600;7.558;2024-03-25T10:52:01;11.70;99.90
18948;DHT22;9607;51.600;7.558;2024-03-25T10:54:30;11.70;99.90
18948;DHT22;9607;51.600;7.558;2024-03-25T10:56:58;11.70;99.90
18948;DHT22;9607;51.600;7.558;2024-03-25T10:59:27;11.80;99.90
18948;DHT22;9607;51.600;7.558;2024-03-25T11:01:54;11.90;99.90
18948;DHT22;9607;51.600;7.558;2024-03-25T11:04:21;12.10;99.90
18948;DHT22;9607;51.600;7.558;2024-03-25T11:06:47;12.20;99.90
18948;DHT22;9607;51.600;7.558;2024-03-25T11:09:22;12.20;99.90
18948;DHT22;9607;51.600;7.558;2024-03-25T11:11:50;12.20;99.90
18948;DHT22;9607;51.600;7.558;2024-03-25T11:14:16;12.20;99.90
18948;DHT22;9607;51.600;7.558;2024-03-25T11:16:51;12.10;99.90
18948;DHT22;9607;51.600;7.558;2024-03-25T11:19:17;11.90;99.90
18948;DHT22;9607;51.600;7.558;2024-03-25T11:21:44;11.80;99.90
18948;DHT22;9607;51.600;7.558;2024-03-25T11:24:10;11.50;99.90
18948;DHT22;9607;51.600;7.558;2024-03-25T11:26:41;11.40;99.90
18948;DHT22;9607;51.600;7.558;2024-03-25T11:29:07;11.40;99.90
18948;DHT22;9607;51.600;7.558;2024-03-25T11:31:34;11.50;99.90
18948;DHT22;9607;51.600;7.558;2024-03-25T11:34:05;11.70;99.90
18948;DHT22;9607;51.600;7.558;2024-03-25T11:36:31;12.00;99.90
18948;DHT22;9607;51.600;7.558;2024-03-25T11:38:58;12.20;99.90
18948;DHT22;9607;51.600;7.558;2024-03-25T11:41:24;12.20;99.90
18948;DHT22;9607;51.600;7.558;2024-03-25T11:43:50;12.30;99.90
18948;DHT22;9607;51.600;7.558;2024-03-25T11:46:18;12.40;99.90
18948;DHT22;9607;51.600;7.558;2024-03-25T11:48:44;12.50;99.90
18948;DHT22;9607;51.600;7.558;2024-03-25T11:51:13;12.70;99.90
18948;DHT22;9607;51.600;7.558;2024-03-25T11:53:39;12.90;99.90
18948;DHT22;9607;51.600;7.558;2024-03-25T11:56:05;12.90;99.90
18948;DHT22;9607;51.600;7.558;2024-03-25T11:58:31;12.90;99.90
18948;DHT22;9607;51.600;7.558;2024-03-25T12:00:57;12.80;99.90
18948;DHT22;9607;51.600;7.558;2024-03-25T12:03:23;12.80;99.90
18948;DHT22;9607;51.600;7.558;2024-03-25T12:05:49;12.80;99.90
18948;DHT22;9607;51.600;7.558;2024-03-25T12:08:16;12.70;99.90
18948;DHT22;9607;51.600;7.558;2024-03-25T12:10:42;12.70;99.90
18948;DHT22;9607;51.600;7.558;2024-03-25T12:13:26;12.70;99.90
18948;DHT22;9607;51.600;7.558;2024-03-25T12:15:53;12.80;99.90
18948;DHT22;9607;51.600;7.558;2024-03-25T12:18:19;12.80;99.90
18948;DHT22;9607;51.600;7.558;2024-03-25T12:20:45;13.00;99.90
18948;DHT22;9607;51.600;7.558;2024-03-25T12:23:11;13.20;99.90
18948;DHT22;9607;51.600;7.558;2024-03-25T12:25:38;13.40;99.90
18948;DHT22;9607;51.600;7.558;2024-03-25T12:28:08;13.60;99.90
18948;DHT22;9607;51.600;7.558;2024-03-25T12:30:48;13.80;99.90
18948;DHT22;9607;51.600;7.558;2024-03-25T12:33:14;14.20;99.90
18948;DHT22;9607;51.600;7.558;2024-03-25T12:35:40;14.30;99.90
18948;DHT22;9607;51.600;7.558;2024-03-25T12:38:06;14.50;99.90
18948;DHT22;9607;51.600;7.558;2024-03-25T12:40:32;15.30;99.90
18948;DHT22;9607;51.600;7.558;2024-03-25T12:42:59;17.10;99.90
18948;DHT22;9607;51.600;7.558;2024-03-25T12:45:25;19.00;99.90
18948;DHT22;9607;51.600;7.558;2024-03-25T12:47:51;20.30;99.90
18948;DHT22;9607;51.600;7.558;2024-03-25T12:50:17;21.50;99.90
18948;DHT22;9607;51.600;7.558;2024-03-25T12:52:43;22.20;99.90
18948;DHT22;9607;51.600;7.558;2024-03-25T12:55:09;22.60;99.90
18948;DHT22;9607;51.600;7.558;2024-03-25T12:57:36;22.60;99.90
18948;DHT22;9607;51.600;7.558;2024-03-25T13:00:03;22.40;99.90
18948;DHT22;9607;51.600;7.558;2024-03-25T13:02:30;21.90;99.90
18948;DHT22;9607;51.600;7.558;2024-03-25T13:04:56;21.80;99.90
18948;DHT22;9607;51.600;7.558;2024-03-25T13:07:22;21.60;99.90
18948;DHT22;9607;51.600;7.558;2024-03-25T13:09:48;21.40;99.90
18948;DHT22;9607;51.600;7.558;2024-03-25T13:12:14;20.90;99.90
18948;DHT22;9607;51.600;7.558;2024-03-25T13:14:40;20.70;99.90
18948;DHT22;9607;51.600;7.558;2024-03-25T13:17:07;20.30;99.40
18948;DHT22;9607;51.600;7.558;2024-03-25T13:19:33;20.20;99.90
18948;DHT22;9607;51.600;7.558;2024-03-25T13:21:59;20.30;99.90
18948;DHT22;9607;51.600;7.558;2024-03-25T13:24:25;20.60;99.90
18948;DHT22;9607;51.600;7.558;2024-03-25T13:26:51;20.90;99.90
18948;DHT22;9607;51.600;7.558;2024-03-25T13:29:16;20.80;99.90
18948;DHT22;9607;51.600;7.558;2024-03-25T13:31:42;20.30;99.90
18948;DHT22;9607;51.600;7.558;2024-03-25T13:34:10;19.70;99.90
18948;DHT22;9607;51.600;7.558;2024-03-25T13:36:35;19.00;99.90
18948;DHT22;9607;51.600;7.558;2024-03-25T13:39:01;18.40;99.90
18948;DHT22;9607;51.600;7.558;2024-03-25T13:41:28;18.20;99.90
18948;DHT22;9607;51.600;7.558;2024-03-25T13:43:54;18.20;99.90
18948;DHT22;9607;51.600;7.558;2024-03-25T13:46:20;18.20;99.90
18948;DHT22;9607;51.600;7.558;2024-03-25T13:48:47;18.30;99.90
18948;DHT22;9607;51.600;7.558;2024-03-25T13:51:14;18.10;99.90
18948;DHT22;9607;51.600;7.558;2024-03-25T13:53:40;18.00;99.90
18948;DHT22;9607;51.600;7.558;2024-03-25T13:56:06;17.90;99.90
18948;DHT22;9607;51.600;7.558;2024-03-25T13:58:32;18.10;99.90
18948;DHT22;9607;51.600;7.558;2024-03-25T14:00:58;18.90;99.90
18948;DHT22;9607;51.600;7.558;2024-03-25T14:03:24;19.50;99.90
18948;DHT22;9607;51.600;7.558;2024-03-25T14:05:50;19.60;99.90
18948;DHT22;9607;51.600;7.558;2024-03-25T14:08:17;19.20;99.90
18948;DHT22;9607;51.600;7.558;2024-03-25T14:10:43;18.80;99.90
18948;DHT22;9607;51.600;7.558;2024-03-25T14:13:10;18.40;99.90
18948;DHT22;9607;51.600;7.558;2024-03-25T14:15:36;18.30;99.90
18948;DHT22;9607;51.600;7.558;2024-03-25T14:18:02;18.70;99.90
18948;DHT22;9607;51.600;7.558;2024-03-25T14:20:28;19.20;99.90
18948;DHT22;9607;51.600;7.558;2024-03-25T14:22:54;19.40;99.90
18948;DHT22;9607;51.600;7.558;2024-03-25T14:25:21;19.40;99.90
18948;DHT22;9607;51.600;7.558;2024-03-25T14:27:47;19.50;95.50
18948;DHT22;9607;51.600;7.558;2024-03-25T14:30:13;20.00;98.40
18948;DHT22;9607;51.600;7.558;2024-03-25T14:32:39;20.40;97.10
18948;DHT22;9607;51.600;7.558;2024-03-25T14:35:05;20.60;92.30
18948;DHT22;9607;51.600;7.558;2024-03-25T14:37:32;20.60;90.20
18948;DHT22;9607;51.600;7.558;2024-03-25T14:39:58;20.80;94.40
18948;DHT22;9607;51.600;7.558;2024-03-25T14:42:26;21.40;90.00
18948;DHT22;9607;51.600;7.558;2024-03-25T14:44:52;21.80;79.80
18948;DHT22;9607;51.600;7.558;2024-03-25T14:47:17;21.20;63.20
18948;DHT22;9607;51.600;7.558;2024-03-25T14:49:43;20.60;67.70
18948;DHT22;9607;51.600;7.558;2024-03-25T14:52:09;20.20;74.90
18948;DHT22;9607;51.600;7.558;2024-03-25T14:54:37;20.30;76.30
18948;DHT22;9607;51.600;7.558;2024-03-25T14:57:03;20.70;72.80
18948;DHT22;9607;51.600;7.558;2024-03-25T14:59:30;21.20;70.40
18948;DHT22;9607;51.600;7.558;2024-03-25T15:01:59;21.50;64.00
18948;DHT22;9607;51.600;7.558;2024-03-25T15:04:25;21.60;65.40
18948;DHT22;9607;51.600;7.558;2024-03-25T15:06:51;21.90;65.90
18948;DHT22;9607;51.600;7.558;2024-03-25T15:09:17;22.50;63.20
18948;DHT22;9607;51.600;7.558;2024-03-25T15:11:43;23.40;62.30
18948;DHT22;9607;51.600;7.558;2024-03-25T15:14:09;24.30;57.80
18948;DHT22;9607;51.600;7.558;2024-03-25T15:16:36;25.20;53.30
18948;DHT22;9607;51.600;7.558;2024-03-25T15:19:03;26.10;51.70
18948;DHT22;9607;51.600;7.558;2024-03-25T15:21:28;26.70;49.30
18948;DHT22;9607;51.600;7.558;2024-03-25T15:23:54;27.10;50.10
18948;DHT22;9607;51.600;7.558;2024-03-25T15:26:22;27.30;48.30
18948;DHT22;9607;51.600;7.558;2024-03-25T15:28:48;27.20;46.30
18948;DHT22;9607;51.600;7.558;2024-03-25T15:31:14;27.30;48.50
18948;DHT22;9607;51.600;7.558;2024-03-25T15:33:41;27.70;47.60
18948;DHT22;9607;51.600;7.558;2024-03-25T15:36:07;28.40;47.10
18948;DHT22;9607;51.600;7.558;2024-03-25T15:38:33;29.30;44.80
18948;DHT22;9607;51.600;7.558;2024-03-25T15:40:59;30.20;43.00
18948;DHT22;9607;51.600;7.558;2024-03-25T15:43:25;31.00;40.90
18948;DHT22;9607;51.600;7.558;2024-03-25T15:45:54;31.70;39.20
18948;DHT22;9607;51.600;7.558;2024-03-25T15:48:21;32.30;38.00
18948;DHT22;9607;51.600;7.558;2024-03-25T15:50:48;32.80;36.30